Time;durP1;ratioP1;P1;durP2;ratioP2;P2;SDS_P1;SDS_P2;PMS_P1;PMS_P2;Temp;Humidity;BMP_temperature;BMP_pressure;BME280_temperature;BME280_humidity;BME280_pressure;Samples;Min_cycle;Max_cycle;Signal;HPM_P1;HPM_P2
2022/04/03 00:02:01;;;;;;;11.30;8.67;;;;;;;4.79;44.05;101701.19;5041341;28;20230;-75
2022/04/03 00:04:26;;;;;;;8.40;7.47;;;;;;;4.91;43.97;101701.78;5042024;28;20427;-73
2022/04/03 00:06:51;;;;;;;10.20;9.20;;;;;;;4.71;44.25;101696.53;5042263;28;20174;-74
2022/04/03 00:09:17;;;;;;;8.43;7.63;;;;;;;4.66;44.89;101694.53;5041210;28;20167;-74
2022/04/03 00:11:42;;;;;;;12.23;8.77;;;;;;;4.99;44.58;101687.56;5041564;28;20190;-73
2022/04/03 00:14:08;;;;;;;9.00;7.37;;;;;;;4.87;45.99;101692.09;5041163;28;20176;-75
2022/04/03 00:16:35;;;;;;;7.40;6.70;;;;;;;5.01;45.24;101688.50;5041170;28;20205;-74
2022/04/03 00:19:00;;;;;;;7.27;6.57;;;;;;;4.62;46.16;101682.28;5041690;28;20162;-75
2022/04/03 00:21:26;;;;;;;8.63;6.60;;;;;;;4.88;45.58;101683.53;5026889;28;20480;-74
2022/04/03 00:23:51;;;;;;;8.20;7.27;;;;;;;4.63;45.69;101681.50;5021190;28;20181;-72
2022/04/03 00:26:16;;;;;;;8.87;6.40;;;;;;;4.84;46.52;101687.72;5021616;28;20242;-72
2022/04/03 00:28:42;;;;;;;7.60;6.93;;;;;;;4.98;45.37;101678.03;5021396;28;20217;-72
2022/04/03 00:31:08;;;;;;;7.40;6.70;;;;;;;4.97;47.46;101691.75;5020892;28;20213;-73
2022/04/03 00:33:33;;;;;;;8.53;7.47;;;;;;;5.08;47.04;101693.97;5021195;28;20406;-74
2022/04/03 00:35:58;;;;;;;8.27;7.43;;;;;;;4.65;47.56;101683.31;5020808;28;20174;-74
2022/04/03 00:38:24;;;;;;;11.73;8.33;;;;;;;4.83;48.39;101682.44;5020782;28;20182;-75
2022/04/03 00:40:49;;;;;;;13.43;9.10;;;;;;;4.31;52.33;101678.19;5020855;28;20178;-75
2022/04/03 00:43:15;;;;;;;15.80;9.10;;;;;;;4.28;54.10;101680.63;5019691;28;20206;-76
2022/04/03 00:45:47;;;;;;;10.13;9.13;;;;;;;4.30;54.16;101674.72;5021344;28;20181;-76
2022/04/03 00:48:13;;;;;;;12.00;9.83;;;;;;;4.31;54.98;101676.47;5031011;28;20197;-76
2022/04/03 00:50:38;;;;;;;14.60;9.30;;;;;;;4.00;55.71;101682.66;5040097;28;20434;-76
2022/04/03 00:53:04;;;;;;;12.20;9.77;;;;;;;3.75;57.29;101671.88;5028139;28;20182;-77
2022/04/03 00:55:30;;;;;;;10.93;9.80;;;;;;;4.06;57.42;101666.63;5020054;28;20167;-77
2022/04/03 00:57:59;;;;;;;11.43;9.87;;;;;;;3.79;58.11;101668.66;5020523;28;20171;-77
2022/04/03 01:00:25;;;;;;;11.90;9.80;;;;;;;3.95;58.54;101660.00;5020158;28;20174;-75
2022/04/03 01:02:50;;;;;;;11.10;9.90;;;;;;;3.88;58.47;101658.81;5019962;28;20477;-75
2022/04/03 01:05:15;;;;;;;13.00;10.70;;;;;;;4.10;58.00;101662.50;5020091;28;20504;-74
2022/04/03 01:07:41;;;;;;;18.10;10.30;;;;;;;4.08;58.86;101659.84;5020452;28;20167;-75
2022/04/03 01:10:07;;;;;;;17.70;10.83;;;;;;;4.28;59.66;101657.38;5020604;28;20214;-73
2022/04/03 01:12:32;;;;;;;14.90;10.30;;;;;;;4.00;60.16;101651.69;5020788;28;20171;-75
2022/04/03 01:14:57;;;;;;;13.17;10.70;;;;;;;3.77;59.17;101662.53;5020609;28;20167;-73
2022/04/03 01:17:23;;;;;;;12.57;9.60;;;;;;;3.79;59.85;101663.47;5020015;28;20171;-73
2022/04/03 01:19:48;;;;;;;13.50;10.07;;;;;;;3.70;59.90;101661.31;5019809;28;20167;-74
2022/04/03 01:22:13;;;;;;;13.90;9.40;;;;;;;4.08;58.60;101652.09;5020048;28;20238;-74
2022/04/03 01:24:42;;;;;;;13.80;9.70;;;;;;;3.96;58.29;101649.75;5019904;28;20175;-72
2022/04/03 01:27:08;;;;;;;11.87;10.63;;;;;;;3.95;58.78;101652.28;5019619;28;20171;-73
2022/04/03 01:29:33;;;;;;;12.00;9.73;;;;;;;4.12;58.31;101653.16;5020195;28;20417;-74
2022/04/03 01:31:58;;;;;;;14.47;10.10;;;;;;;4.14;57.47;101654.09;5019298;28;20171;-74
2022/04/03 01:34:24;;;;;;;11.17;9.93;;;;;;;4.02;58.07;101647.50;5019708;28;20403;-72
2022/04/03 01:36:49;;;;;;;12.60;10.03;;;;;;;4.14;57.56;101648.94;5020298;28;20167;-73
2022/04/03 01:39:14;;;;;;;10.93;9.50;;;;;;;4.00;57.16;101641.38;5019487;28;20167;-72
2022/04/03 01:41:41;;;;;;;31.03;9.70;;;;;;;4.05;58.67;101639.03;5019314;28;20199;-72
2022/04/03 01:44:08;;;;;;;10.07;8.93;;;;;;;3.76;57.57;101637.53;5019174;28;20178;-72
2022/04/03 01:46:34;;;;;;;10.83;9.73;;;;;;;3.81;57.75;101643.84;5019320;28;20446;-73
2022/04/03 01:48:59;;;;;;;11.30;9.60;;;;;;;3.97;57.68;101642.94;5019134;28;20418;-74
2022/04/03 01:51:25;;;;;;;11.13;8.90;;;;;;;3.54;57.90;101641.56;5019808;28;20402;-73
2022/04/03 01:53:50;;;;;;;11.60;9.80;;;;;;;3.30;58.85;101639.47;5019225;28;20182;-73
2022/04/03 01:56:15;;;;;;;11.97;8.80;;;;;;;3.28;60.56;101651.38;5019325;28;20433;-74
2022/04/03 01:58:41;;;;;;;13.53;9.53;;;;;;;2.93;59.36;101645.19;5019757;28;20254;-73
2022/04/03 02:01:06;;;;;;;11.97;9.80;;;;;;;3.11;60.23;101644.44;5017679;28;20273;-73
2022/04/03 02:03:31;;;;;;;10.00;9.00;;;;;;;3.10;59.61;101642.66;5018208;28;20309;-73
2022/04/03 02:05:57;;;;;;;9.53;8.53;;;;;;;2.88;60.39;101641.47;5019680;28;20486;-73
2022/04/03 02:08:23;;;;;;;10.23;8.97;;;;;;;3.18;59.94;101641.38;5019157;28;20264;-73
2022/04/03 02:10:48;;;;;;;11.17;9.20;;;;;;;2.88;59.65;101638.00;5018350;28;20639;-73
2022/04/03 02:13:13;;;;;;;17.73;8.37;;;;;;;3.19;60.35;101638.91;5019779;28;20167;-73
2022/04/03 02:15:39;;;;;;;11.20;8.40;;;;;;;2.88;60.28;101638.00;5019421;28;20211;-74
2022/04/03 02:18:04;;;;;;;9.20;8.23;;;;;;;3.27;59.94;101631.56;5019097;28;20203;-74
2022/04/03 02:20:31;;;;;;;16.20;9.90;;;;;;;3.62;59.51;101632.56;5019522;28;20178;-73
2022/04/03 02:22:57;;;;;;;11.60;8.67;;;;;;;2.89;60.38;101637.22;5018794;28;20215;-75
2022/04/03 02:25:22;;;;;;;10.93;8.67;;;;;;;2.99;62.26;101624.94;5018079;28;20835;-73
2022/04/03 02:27:48;;;;;;;9.90;8.90;;;;;;;3.04;61.95;101630.31;5019528;28;20171;-74
2022/04/03 02:30:13;;;;;;;10.53;9.10;;;;;;;3.20;62.34;101624.31;5018897;28;20193;-73
2022/04/03 02:32:40;;;;;;;10.60;8.90;;;;;;;3.32;61.64;101619.81;5018578;28;20175;-74
2022/04/03 02:35:08;;;;;;;10.80;8.80;;;;;;;3.44;60.75;101621.28;5019402;28;20182;-74
2022/04/03 02:37:34;;;;;;;9.87;8.50;;;;;;;3.33;60.74;101623.31;5019072;28;20428;-73
2022/04/03 02:40:00;;;;;;;10.23;8.23;;;;;;;3.34;61.01;101618.22;5018760;28;20421;-73
2022/04/03 02:42:25;;;;;;;14.03;9.10;;;;;;;2.98;61.81;101623.16;5018401;28;20454;-73
2022/04/03 02:44:51;;;;;;;12.30;9.00;;;;;;;3.00;62.93;101631.88;5018891;28;20182;-74
2022/04/03 02:47:17;;;;;;;9.97;8.97;;;;;;;2.28;63.36;101628.69;5018792;28;20571;-74
2022/04/03 02:49:42;;;;;;;21.30;9.37;;;;;;;2.83;63.38;101627.47;5019218;28;20548;-73
2022/04/03 02:52:07;;;;;;;20.10;10.43;;;;;;;2.48;63.70;101627.25;5018418;28;20175;-74
2022/04/03 02:54:33;;;;;;;10.37;8.70;;;;;;;2.66;63.77;101619.66;5018911;28;20234;-72
2022/04/03 02:56:58;;;;;;;9.40;8.50;;;;;;;2.86;63.63;101613.06;5019121;28;20425;-73
2022/04/03 02:59:23;;;;;;;12.03;9.30;;;;;;;2.91;62.30;101625.31;5018366;28;20179;-73
2022/04/03 03:01:48;;;;;;;11.03;9.10;;;;;;;3.03;61.96;101616.56;5018067;28;20230;-74
2022/04/03 03:04:14;;;;;;;12.13;9.40;;;;;;;2.92;62.39;101619.34;5018975;28;20217;-73
2022/04/03 03:06:40;;;;;;;10.83;8.43;;;;;;;2.57;62.68;101618.28;5018515;28;20171;-72
2022/04/03 03:09:05;;;;;;;10.40;8.63;;;;;;;2.70;63.37;101619.03;5018607;28;20422;-72
2022/04/03 03:11:30;;;;;;;10.33;9.20;;;;;;;2.97;62.49;101618.78;5018593;28;20209;-73
2022/04/03 03:13:56;;;;;;;9.83;8.83;;;;;;;2.63;63.05;101622.09;5018286;28;20182;-73
2022/04/03 03:16:21;;;;;;;12.50;9.23;;;;;;;2.84;63.78;101619.84;5018570;28;20545;-73
2022/04/03 03:18:46;;;;;;;10.90;9.53;;;;;;;2.52;63.32;101615.47;5018843;28;20535;-72
2022/04/03 03:21:12;;;;;;;10.03;8.87;;;;;;;2.44;63.87;101617.59;5018472;28;20179;-74
2022/04/03 03:23:40;;;;;;;12.30;9.30;;;;;;;2.45;63.70;101613.31;5019958;28;20579;-73
2022/04/03 03:26:06;;;;;;;9.73;8.63;;;;;;;2.05;65.13;101616.19;5022932;28;20180;-73
2022/04/03 03:28:31;;;;;;;10.40;9.40;;;;;;;2.43;63.57;101609.78;5022491;28;20452;-72
2022/04/03 03:30:57;;;;;;;13.73;9.07;;;;;;;2.25;64.84;101607.06;5022365;28;20426;-75
2022/04/03 03:33:22;;;;;;;9.73;8.73;;;;;;;2.28;64.56;101605.53;5022874;28;20170;-74
2022/04/03 03:35:47;;;;;;;13.33;8.90;;;;;;;2.14;65.49;101604.75;5022090;28;20179;-72
2022/04/03 03:38:12;;;;;;;11.20;9.10;;;;;;;2.62;64.41;101609.13;5022466;28;20183;-74
2022/04/03 03:40:39;;;;;;;11.90;9.10;;;;;;;2.47;63.56;101611.72;5022711;28;20179;-72
2022/04/03 03:43:04;;;;;;;10.80;8.83;;;;;;;2.31;64.70;101598.00;5021804;28;20203;-73
2022/04/03 03:45:30;;;;;;;14.10;9.37;;;;;;;2.57;64.38;101598.59;5021951;28;20513;-73
2022/04/03 03:47:57;;;;;;;14.13;9.10;;;;;;;2.63;64.26;101593.75;5022471;28;20175;-73
2022/04/03 03:50:22;;;;;;;9.57;8.37;;;;;;;2.49;63.67;101595.56;5021295;28;20174;-73
2022/04/03 03:52:47;;;;;;;9.70;8.70;;;;;;;2.34;64.89;101597.25;5021652;28;20429;-74
2022/04/03 03:55:13;;;;;;;11.37;9.13;;;;;;;2.40;64.46;101589.03;5022162;28;20267;-73
2022/04/03 03:57:39;;;;;;;10.03;8.50;;;;;;;2.44;65.79;101591.84;5020811;28;20502;-73
2022/04/03 04:00:05;;;;;;;11.40;8.40;;;;;;;2.27;65.21;101592.59;5021699;28;20304;-73
2022/04/03 04:02:31;;;;;;;12.50;8.27;;;;;;;2.10;65.90;101584.78;5021470;28;20488;-73
2022/04/03 04:04:57;;;;;;;13.70;8.80;;;;;;;1.93;66.05;101588.94;5021770;28;20426;-74
2022/04/03 04:07:22;;;;;;;12.80;8.70;;;;;;;2.11;66.02;101577.94;5022077;28;20202;-74
2022/04/03 04:09:47;;;;;;;9.90;8.43;;;;;;;2.40;66.20;101578.75;5021433;28;20441;-72
2022/04/03 04:12:13;;;;;;;12.30;9.60;;;;;;;2.48;65.81;101578.34;5021376;28;20186;-73
2022/04/03 04:14:38;;;;;;;12.50;8.47;;;;;;;2.27;64.86;101572.88;5022038;28;20206;-74
2022/04/03 04:17:08;;;;;;;9.63;8.63;;;;;;;2.11;65.95;101581.44;5021518;28;20175;-73
2022/04/03 04:19:34;;;;;;;9.10;8.20;;;;;;;1.99;67.58;101581.59;5021470;28;20202;-73
2022/04/03 04:21:59;;;;;;;12.50;8.43;;;;;;;2.23;65.75;101583.78;5021552;28;20851;-72
2022/04/03 04:24:25;;;;;;;10.57;8.97;;;;;;;2.29;65.79;101581.56;5021335;28;20197;-72
2022/04/03 04:26:50;;;;;;;12.87;8.90;;;;;;;2.27;66.02;101569.44;5021229;28;20190;-73
2022/04/03 04:29:15;;;;;;;9.63;8.73;;;;;;;2.26;65.94;101571.13;5021789;28;20178;-74
2022/04/03 04:31:41;;;;;;;11.33;8.30;;;;;;;2.25;66.39;101574.50;5021116;28;20285;-73
2022/04/03 04:34:07;;;;;;;10.10;9.10;;;;;;;2.18;65.99;101573.25;5020714;28;20560;-73
2022/04/03 04:36:32;;;;;;;12.80;9.47;;;;;;;2.23;66.02;101568.34;5021624;28;20225;-72
2022/04/03 04:38:58;;;;;;;9.33;8.33;;;;;;;2.30;65.95;101567.94;5021231;28;20752;-75
2022/04/03 04:41:23;;;;;;;9.57;8.67;;;;;;;2.29;65.80;101570.41;5020910;28;20241;-75
2022/04/03 04:43:49;;;;;;;12.23;8.47;;;;;;;1.99;66.51;101571.31;5021701;28;20186;-74
2022/04/03 04:46:14;;;;;;;9.60;8.60;;;;;;;2.24;66.14;101567.56;5020721;28;20827;-74
2022/04/03 04:48:39;;;;;;;9.53;8.03;;;;;;;1.97;66.00;101564.31;5021262;28;20509;-73
2022/04/03 04:51:05;;;;;;;10.40;8.80;;;;;;;1.95;66.83;101569.34;5021471;28;20220;-73
2022/04/03 04:53:30;;;;;;;24.40;8.57;;;;;;;2.17;66.54;101571.47;5020982;28;20179;-73
2022/04/03 04:55:55;;;;;;;10.03;8.60;;;;;;;2.27;65.86;101572.88;5021086;28;20480;-73
2022/04/03 04:58:21;;;;;;;11.03;8.70;;;;;;;2.28;66.57;101558.34;5021343;28;20273;-72
2022/04/03 05:00:46;;;;;;;11.20;7.83;;;;;;;2.21;66.51;101566.53;5020610;28;20571;-73
2022/04/03 05:03:12;;;;;;;9.17;8.20;;;;;;;2.57;65.88;101564.22;5020071;28;20262;-73
2022/04/03 05:05:37;;;;;;;10.67;9.03;;;;;;;2.33;64.91;101562.94;5020579;28;20564;-71
2022/04/03 05:08:03;;;;;;;10.60;8.70;;;;;;;2.19;65.34;101561.25;5010432;28;20198;-72
2022/04/03 05:10:29;;;;;;;11.60;8.30;;;;;;;2.33;66.08;101559.50;5013453;28;20210;-73
2022/04/03 05:12:55;;;;;;;8.13;7.33;;;;;;;2.04;66.76;101561.28;5020289;28;20171;-72
2022/04/03 05:15:20;;;;;;;9.83;8.93;;;;;;;2.62;65.88;101562.78;5018180;28;20479;-72
2022/04/03 05:17:46;;;;;;;8.80;7.97;;;;;;;2.52;65.67;101556.25;5019901;28;20179;-75
2022/04/03 05:20:13;;;;;;;10.17;8.53;;;;;;;2.68;66.01;101555.41;5020150;28;20163;-74
2022/04/03 05:22:39;;;;;;;9.03;8.13;;;;;;;2.45;66.53;101561.84;5019880;28;20572;-72
2022/04/03 05:25:05;;;;;;;10.63;8.30;;;;;;;2.67;66.28;101557.09;5019789;28;20422;-72
2022/04/03 05:27:31;;;;;;;10.03;9.00;;;;;;;2.56;65.95;101558.19;5020421;28;20421;-71
2022/04/03 05:29:57;;;;;;;12.50;8.60;;;;;;;2.75;67.04;101562.66;5019906;28;20421;-73
2022/04/03 05:32:26;;;;;;;9.00;8.10;;;;;;;2.66;65.39;101563.03;5019573;28;20480;-73
2022/04/03 05:34:52;;;;;;;11.73;8.10;;;;;;;2.89;65.49;101558.25;5019283;28;20202;-73
2022/04/03 05:37:17;;;;;;;10.63;8.33;;;;;;;2.34;65.72;101572.44;5021797;28;20430;-72
2022/04/03 05:39:43;;;;;;;8.90;8.03;;;;;;;2.78;65.57;101567.09;5021001;28;20225;-73
2022/04/03 05:42:08;;;;;;;11.90;8.10;;;;;;;2.55;67.16;101568.41;5020387;28;20202;-72
2022/04/03 05:44:33;;;;;;;9.20;8.30;;;;;;;2.57;65.47;101570.28;5019273;28;20179;-72
2022/04/03 05:46:59;;;;;;;9.60;7.90;;;;;;;2.96;65.59;101567.19;5018728;28;20547;-71
2022/04/03 05:49:24;;;;;;;11.00;7.97;;;;;;;2.95;64.66;101568.91;5020001;28;20186;-73
2022/04/03 05:51:51;;;;;;;8.90;7.93;;;;;;;3.17;64.63;101563.19;5019294;28;20182;-73
2022/04/03 05:54:16;;;;;;;8.70;7.90;;;;;;;3.78;63.16;101563.72;5019155;28;20179;-73
2022/04/03 05:56:41;;;;;;;11.73;8.80;;;;;;;3.78;63.34;101566.31;5019670;28;20468;-74
2022/04/03 05:59:07;;;;;;;9.53;8.10;;;;;;;3.45;63.41;101566.34;5019221;28;20305;-73
2022/04/03 06:01:32;;;;;;;12.03;7.80;;;;;;;3.78;63.73;101569.75;5018912;28;20535;-74
2022/04/03 06:03:57;;;;;;;8.90;8.00;;;;;;;4.37;62.00;101562.31;5019801;28;20185;-75
2022/04/03 06:06:23;;;;;;;6.70;6.00;;;;;;;6.10;57.17;101558.78;5019223;28;20175;-73
2022/04/03 06:08:48;;;;;;;14.00;6.90;;;;;;;5.15;57.32;101566.78;5019099;28;20179;-74
2022/04/03 06:11:13;;;;;;;9.63;7.30;;;;;;;4.84;59.84;101566.28;5019569;28;20245;-74
2022/04/03 06:13:39;;;;;;;12.50;7.87;;;;;;;4.65;60.05;101566.22;5018992;28;20261;-74
2022/04/03 06:16:04;;;;;;;8.20;7.40;;;;;;;4.85;59.34;101570.59;5019257;28;20455;-73
2022/04/03 06:18:29;;;;;;;8.00;7.33;;;;;;;4.20;61.04;101571.81;5019434;28;20171;-74
2022/04/03 06:20:55;;;;;;;7.30;6.40;;;;;;;4.31;60.90;101574.94;5018761;28;20269;-74
2022/04/03 06:23:22;;;;;;;8.90;7.77;;;;;;;4.47;61.30;101568.81;5018743;28;20206;-74
2022/04/03 06:25:49;;;;;;;8.90;7.77;;;;;;;4.21;62.08;101571.03;5019252;28;20426;-74
2022/04/03 06:28:15;;;;;;;7.80;7.00;;;;;;;6.23;57.73;101566.25;5017848;28;20694;-74
2022/04/03 06:30:40;;;;;;;9.23;6.57;;;;;;;5.77;56.65;101566.88;5018646;28;20418;-74
2022/04/03 06:33:06;;;;;;;9.00;6.73;;;;;;;5.21;58.32;101570.53;5019332;28;20163;-74
2022/04/03 06:35:31;;;;;;;7.50;6.80;;;;;;;4.92;58.86;101565.72;5018695;28;20175;-73
2022/04/03 06:37:56;;;;;;;12.10;7.30;;;;;;;4.20;61.04;101574.41;5018712;28;20179;-75
2022/04/03 06:40:23;;;;;;;7.50;6.43;;;;;;;4.19;61.35;101573.53;5019380;28;20513;-73
2022/04/03 06:42:48;;;;;;;8.40;7.50;;;;;;;3.81;64.09;101569.91;5018695;28;20563;-72
2022/04/03 06:45:14;;;;;;;8.10;7.03;;;;;;;3.79;64.77;101570.63;5019362;28;20426;-72
2022/04/03 06:47:40;;;;;;;7.27;6.50;;;;;;;4.43;64.08;101567.78;5037882;28;20249;-74
2022/04/03 06:50:06;;;;;;;8.30;7.33;;;;;;;4.49;63.37;101567.19;5038136;28;20425;-72
2022/04/03 06:52:31;;;;;;;8.30;7.40;;;;;;;4.33;63.87;101565.56;5037925;28;20174;-73
2022/04/03 06:54:56;;;;;;;8.67;7.30;;;;;;;3.88;64.82;101572.00;5038195;28;20470;-72
2022/04/03 06:57:22;;;;;;;7.50;6.67;;;;;;;3.78;64.31;101571.47;5037705;28;20178;-73
2022/04/03 06:59:47;;;;;;;8.27;6.90;;;;;;;3.95;65.64;101572.31;5038521;28;20201;-72
2022/04/03 07:02:13;;;;;;;9.37;7.43;;;;;;;3.59;64.92;101577.38;5039104;28;20297;-72
2022/04/03 07:04:38;;;;;;;7.87;7.07;;;;;;;3.97;65.90;101571.56;5037347;28;20178;-73
2022/04/03 07:07:04;;;;;;;8.70;7.37;;;;;;;4.52;63.85;101567.34;5038187;28;20170;-73
2022/04/03 07:09:29;;;;;;;7.30;6.60;;;;;;;4.58;64.83;101566.75;5037967;28;20450;-73
2022/04/03 07:11:55;;;;;;;7.83;6.67;;;;;;;4.42;64.12;101565.13;5038010;28;20240;-72
2022/04/03 07:14:20;;;;;;;9.33;6.30;;;;;;;4.54;65.02;101566.56;5038361;28;20286;-72
2022/04/03 07:16:45;;;;;;;8.60;7.47;;;;;;;4.75;64.61;101568.44;5037981;28;20182;-72
2022/04/03 07:19:11;;;;;;;7.47;6.73;;;;;;;4.82;63.83;101564.44;5037935;28;20178;-75
2022/04/03 07:21:36;;;;;;;7.73;6.67;;;;;;;4.99;63.95;101560.94;5038271;28;20245;-75
2022/04/03 07:24:04;;;;;;;10.60;8.10;;;;;;;5.58;62.49;101568.69;5037994;28;20512;-74
2022/04/03 07:26:29;;;;;;;9.97;6.63;;;;;;;5.19;64.38;101566.09;5038007;28;20285;-78
2022/04/03 07:28:55;;;;;;;9.63;6.33;;;;;;;5.39;62.96;101560.09;5038336;28;20406;-78
2022/04/03 07:31:20;;;;;;;7.43;6.50;;;;;;;6.15;61.95;101557.28;5037481;28;20178;-76
2022/04/03 07:33:46;;;;;;;9.80;6.90;;;;;;;6.16;62.90;101562.50;5037338;28;20288;-77
2022/04/03 07:36:12;;;;;;;6.67;6.07;;;;;;;8.32;65.46;101553.91;5037142;28;20166;-70
2022/04/03 07:38:37;;;;;;;6.83;6.00;;;;;;;8.03;60.66;101559.00;5037172;28;20257;-70
2022/04/03 07:41:02;;;;;;;5.80;5.23;;;;;;;7.19;62.11;101559.56;5037393;28;20170;-69
2022/04/03 07:43:28;;;;;;;7.43;6.73;;;;;;;7.40;60.80;101565.53;5038199;28;20552;-70
2022/04/03 07:45:53;;;;;;;7.90;7.20;;;;;;;6.44;61.74;101570.50;5035418;28;20265;-74
2022/04/03 07:48:21;;;;;;;7.03;6.43;;;;;;;5.95;63.67;101561.59;5017525;28;20182;-75
2022/04/03 07:50:47;;;;;;;7.17;6.47;;;;;;;6.14;64.07;101566.72;5017794;28;20210;-75
2022/04/03 07:53:12;;;;;;;8.70;6.90;;;;;;;6.34;63.25;101570.13;5018055;28;20448;-75
2022/04/03 07:55:37;;;;;;;6.90;6.20;;;;;;;6.25;64.58;101569.75;5017932;28;20183;-74
2022/04/03 07:58:03;;;;;;;8.30;7.50;;;;;;;5.85;65.20;101566.38;5018244;28;20583;-74
2022/04/03 08:00:28;;;;;;;9.07;8.20;;;;;;;5.27;66.84;101569.03;5017450;28;20268;-75
2022/04/03 08:02:54;;;;;;;8.67;7.87;;;;;;;4.79;68.68;101572.00;5016732;28;20262;-75
2022/04/03 08:05:19;;;;;;;7.97;6.83;;;;;;;5.10;68.17;101565.69;5017670;28;20183;-77
2022/04/03 08:07:45;;;;;;;8.53;7.83;;;;;;;5.02;67.79;101566.22;5017803;28;20187;-73
2022/04/03 08:10:13;;;;;;;7.40;6.70;;;;;;;5.52;67.64;101563.22;5019818;28;20532;-73
2022/04/03 08:12:40;;;;;;;7.57;6.90;;;;;;;5.43;67.29;101573.19;5020764;28;20761;-74
2022/04/03 08:15:07;;;;;;;8.30;7.57;;;;;;;5.93;66.87;101566.72;5021173;28;20433;-76
2022/04/03 08:17:38;;;;;;;7.57;6.87;;;;;;;6.16;66.57;101575.47;5021367;28;20422;-76
2022/04/03 08:20:08;;;;;;;11.30;8.47;;;;;;;9.35;59.05;101555.22;5021661;28;20501;-74
2022/04/03 08:22:34;;;;;;;7.50;6.00;;;;;;;9.94;53.80;101549.84;5021335;28;20472;-77
2022/04/03 08:24:59;;;;;;;7.20;6.60;;;;;;;7.68;58.42;101560.41;5021155;28;20421;-78
2022/04/03 08:27:24;;;;;;;9.10;6.57;;;;;;;8.12;58.74;101552.34;5021606;28;20171;-76
2022/04/03 08:29:50;;;;;;;6.60;6.00;;;;;;;8.63;56.66;101554.88;5021419;28;20530;-78
2022/04/03 08:32:15;;;;;;;6.33;5.83;;;;;;;7.52;58.42;101559.00;5021182;28;20194;-75
2022/04/03 08:34:41;;;;;;;6.53;5.97;;;;;;;7.06;60.39;101566.88;5021775;28;20166;-76
2022/04/03 08:37:06;;;;;;;6.47;5.90;;;;;;;7.04;60.67;101563.34;5021468;28;20237;-76
2022/04/03 08:39:32;;;;;;;7.50;6.73;;;;;;;6.57;62.46;101571.03;5020717;28;20212;-77
2022/04/03 08:41:57;;;;;;;8.33;6.50;;;;;;;6.36;64.45;101573.69;5023118;28;20218;-77
2022/04/03 08:44:23;;;;;;;8.03;6.80;;;;;;;6.03;64.31;101578.34;5038038;28;20185;-78
2022/04/03 08:46:48;;;;;;;10.20;7.30;;;;;;;6.21;65.01;101584.31;5019951;28;20186;-76
2022/04/03 08:49:16;;;;;;;7.37;6.67;;;;;;;6.75;64.59;101572.59;5027686;28;20533;-77
2022/04/03 08:51:42;;;;;;;7.10;6.50;;;;;;;6.62;64.36;101573.84;5040260;28;20460;-76
2022/04/03 08:54:08;;;;;;;8.70;7.50;;;;;;;7.13;62.98;101564.50;5039220;28;20413;-77
2022/04/03 08:56:34;;;;;;;8.87;8.00;;;;;;;7.30;62.59;101565.13;5019745;28;20709;-77
2022/04/03 08:58:59;;;;;;;8.67;7.90;;;;;;;8.50;60.12;101565.75;5036773;28;20428;-77
2022/04/03 09:01:24;;;;;;;10.33;7.43;;;;;;;7.52;60.88;101569.38;5040110;28;20257;-76
2022/04/03 09:03:50;;;;;;;8.13;7.23;;;;;;;6.82;62.60;101571.13;5041292;28;20248;-73
2022/04/03 09:06:17;;;;;;;8.80;7.20;;;;;;;6.77;63.50;101572.69;5040416;28;20232;-75
2022/04/03 09:08:43;;;;;;;7.77;7.03;;;;;;;6.85;64.24;101573.84;5039957;28;20206;-75
2022/04/03 09:11:09;;;;;;;8.73;7.30;;;;;;;9.48;57.64;101556.44;5040384;28;20481;-77
2022/04/03 09:13:36;;;;;;;8.97;6.90;;;;;;;11.59;52.42;101542.13;5040125;28;20174;-76
2022/04/03 09:16:01;;;;;;;6.10;5.50;;;;;;;12.21;48.50;101538.00;5023848;28;20418;-78
2022/04/03 09:18:51;;;;;;;6.10;5.50;;;;;;;14.11;46.10;101530.66;5020781;28;20868;-77
2022/04/03 09:21:25;;;;;;;6.43;5.67;;;;;;;13.54;44.56;101527.50;5020432;28;20190;-78
2022/04/03 09:24:22;;;;;;;5.87;5.30;;;;;;;13.21;45.23;101535.88;5020724;28;20677;-77
2022/04/03 09:26:57;;;;;;;6.07;4.40;;;;;;;12.32;46.99;101533.81;5020038;28;20418;-75
2022/04/03 09:29:22;;;;;;;5.57;4.57;;;;;;;11.63;49.60;101529.16;5019043;28;20531;-76
2022/04/03 09:31:48;;;;;;;5.27;4.77;;;;;;;12.73;46.91;101527.41;5019318;28;20782;-77
2022/04/03 09:34:16;;;;;;;5.27;4.77;;;;;;;12.49;46.23;101531.47;5018692;28;20175;-79
2022/04/03 09:37:17;;;;;;;6.27;4.30;;;;;;;14.32;43.64;101515.94;5020241;28;20174;-79
2022/04/03 09:39:48;;;;;;;6.90;4.90;;;;;;;14.48;41.80;101517.78;5019337;28;20516;-79
2022/04/03 09:42:15;;;;;;;5.13;4.43;;;;;;;13.89;42.73;101513.84;4983668;28;20473;-76
2022/04/03 09:44:43;;;;;;;5.93;4.00;;;;;;;15.57;39.55;101503.31;4999230;28;20430;-74
2022/04/03 09:47:36;;;;;;;6.37;4.60;;;;;;;13.37;42.87;101510.75;4999409;28;20685;-73
2022/04/03 09:50:04;;;;;;;5.57;3.70;;;;;;;11.59;46.17;101522.13;5005423;28;20434;-75
2022/04/03 09:52:41;;;;;;;4.43;4.00;;;;;;;11.75;46.06;101518.03;5019527;28;20846;-75
2022/04/03 09:55:17;;;;;;;5.17;4.50;;;;;;;13.21;42.68;101509.69;5019376;28;20425;-72
2022/04/03 09:57:43;;;;;;;6.90;5.27;;;;;;;13.58;40.09;101507.47;5019352;28;20515;-75
2022/04/03 10:00:09;;;;;;;4.10;3.70;;;;;;;14.13;37.94;101489.56;5019248;28;20435;-74
2022/04/03 10:02:34;;;;;;;3.70;3.40;;;;;;;14.46;38.62;101492.41;5018092;28;20469;-75
2022/04/03 10:05:00;;;;;;;6.83;6.13;;;;;;;12.69;41.09;101499.44;5018901;28;20178;-75
2022/04/03 10:07:26;;;;;;;6.03;4.50;;;;;;;14.39;39.20;101494.09;5019657;28;20269;-74
2022/04/03 10:09:53;;;;;;;5.17;4.00;;;;;;;14.71;37.43;101485.56;5019134;28;20472;-73
2022/04/03 10:12:22;;;;;;;3.80;3.33;;;;;;;13.47;38.25;101486.41;5018323;28;20280;-75
2022/04/03 10:14:50;;;;;;;5.53;3.53;;;;;;;12.55;39.49;101483.56;5018763;28;20436;-73
2022/04/03 10:17:20;;;;;;;6.23;3.80;;;;;;;11.72;41.57;101486.66;5018860;28;20497;-76
2022/04/03 10:19:46;;;;;;;6.80;4.00;;;;;;;10.26;45.64;101501.13;5018945;28;20472;-76
2022/04/03 10:22:26;;;;;;;11.63;3.80;;;;;;;9.74;48.64;101511.16;5018669;28;20416;-75
2022/04/03 10:24:54;;;;;;;7.50;3.83;;;;;;;10.20;50.19;101497.47;5019392;28;20450;-77
2022/04/03 10:27:25;;;;;;;5.07;4.53;;;;;;;9.76;52.67;101500.78;5018129;28;20475;-76
2022/04/03 10:29:55;;;;;;;5.27;4.03;;;;;;;9.10;54.55;101500.78;5017731;28;20438;-75
2022/04/03 10:32:28;;;;;;;5.23;3.70;;;;;;;9.57;53.66;101504.63;5018277;28;20473;-80
2022/04/03 10:34:57;;;;;;;6.83;4.10;;;;;;;9.90;52.84;101499.41;5019278;28;20424;-79
2022/04/03 10:37:27;;;;;;;4.20;3.80;;;;;;;11.00;51.14;101486.22;5019594;28;20432;-78
2022/04/03 10:40:10;;;;;;;5.00;3.47;;;;;;;10.90;50.06;101492.09;5018948;28;20513;-73
2022/04/03 10:42:50;;;;;;;4.50;3.97;;;;;;;10.43;50.41;101492.81;5011664;28;20806;-72
2022/04/03 10:45:15;;;;;;;5.40;3.53;;;;;;;10.57;50.57;101486.19;5019202;28;20587;-74
2022/04/03 10:47:41;;;;;;;4.20;3.60;;;;;;;10.09;50.34;101490.31;5018469;28;20428;-74
2022/04/03 10:50:08;;;;;;;7.37;4.83;;;;;;;9.82;50.02;101505.25;5018214;28;20556;-75
2022/04/03 10:52:36;;;;;;;4.20;3.47;;;;;;;8.95;52.32;101505.56;5017601;28;20701;-75
2022/04/03 10:55:22;;;;;;;3.23;2.90;;;;;;;8.34;53.90;101510.66;5018727;28;20422;-75
2022/04/03 10:58:02;;;;;;;6.63;3.20;;;;;;;7.54;55.96;101510.66;5018732;28;20422;-76
2022/04/03 11:00:27;;;;;;;2.80;2.50;;;;;;;7.67;57.56;101520.63;5018214;28;20441;-75
2022/04/03 11:02:55;;;;;;;9.23;3.17;;;;;;;8.33;55.67;101505.41;5018268;28;20573;-75
2022/04/03 11:05:20;;;;;;;4.40;2.57;;;;;;;8.36;55.59;101501.19;5018256;28;20185;-76
2022/04/03 11:07:46;;;;;;;4.30;3.10;;;;;;;8.61;54.72;101501.97;5018851;28;20398;-74
2022/04/03 11:10:11;;;;;;;2.87;2.57;;;;;;;8.80;52.91;101492.13;5011557;28;20234;-75
2022/04/03 11:12:44;;;;;;;4.33;3.03;;;;;;;9.08;52.28;101486.84;4997693;28;20246;-74
2022/04/03 11:15:12;;;;;;;5.27;3.43;;;;;;;9.09;51.57;101486.03;5005213;28;20193;-75
2022/04/03 11:17:45;;;;;;;3.73;2.80;;;;;;;10.44;49.84;101476.34;5000455;28;20763;-74
2022/04/03 11:20:28;;;;;;;3.43;2.80;;;;;;;12.00;45.44;101465.34;5019385;28;20428;-75
2022/04/03 11:22:53;;;;;;;4.50;2.97;;;;;;;12.08;43.80;101459.41;5026858;28;20426;-75
2022/04/03 11:25:19;;;;;;;4.57;3.27;;;;;;;13.44;41.95;101460.19;5022861;28;20426;-75
2022/04/03 11:27:44;;;;;;;6.43;4.20;;;;;;;13.09;41.34;101456.31;5030630;28;20198;-75